createdAt,value
2022-08-05T00:00:08.709Z,53.67
2022-08-05T00:05:07.803Z,53.74
2022-08-05T00:10:08.027Z,53.81
2022-08-05T00:15:54.419Z,53.86
2022-08-05T00:20:08.134Z,53.9
2022-08-05T00:25:08.385Z,53.93
2022-08-05T00:30:11.337Z,54.02
2022-08-05T00:35:08.345Z,54.02
2022-08-05T00:40:09.374Z,54.09
2022-08-05T00:45:08.838Z,54.14
2022-08-05T00:50:08.486Z,54.18
2022-08-05T00:55:08.199Z,54.2
2022-08-05T01:00:11.189Z,54.25
2022-08-05T01:05:09.972Z,54.32
2022-08-05T01:10:12.568Z,54.36
2022-08-05T01:15:35.021Z,54.39
2022-08-05T01:20:18.254Z,54.44
2022-08-05T01:25:07.948Z,54.49
2022-08-05T01:30:12.391Z,54.54
2022-08-05T01:35:10.639Z,54.54
2022-08-05T01:40:08.673Z,54.59
2022-08-05T01:45:08.592Z,54.6
2022-08-05T01:50:08.294Z,54.65
2022-08-05T01:55:08.199Z,54.66
2022-08-05T02:00:11.968Z,54.72
2022-08-05T02:05:11.871Z,54.73
2022-08-05T02:10:08.125Z,54.81
2022-08-05T02:15:07.827Z,54.84
2022-08-05T02:20:08.232Z,54.88
2022-08-05T02:25:07.957Z,54.93
2022-08-05T02:30:07.665Z,54.97
2022-08-05T02:35:13.628Z,54.99
2022-08-05T02:40:09.529Z,55.02
2022-08-05T02:45:07.974Z,55.04
2022-08-05T02:50:08.042Z,55.08
2022-08-05T02:55:10.877Z,55.13
2022-08-05T03:00:08.000Z,55.14
2022-08-05T03:05:07.727Z,55.17
2022-08-05T03:10:08.417Z,55.22
2022-08-05T03:15:09.205Z,55.26
2022-08-05T03:20:08.022Z,55.3
2022-08-05T03:25:34.054Z,55.36
2022-08-05T03:30:09.109Z,55.43
2022-08-05T03:35:08.939Z,55.48
2022-08-05T03:40:07.966Z,55.5
2022-08-05T03:45:21.911Z,55.53
2022-08-05T03:50:08.627Z,55.58
2022-08-05T03:56:05.239Z,55.6
2022-08-05T04:00:18.047Z,55.61
2022-08-05T04:05:02.328Z,55.65
2022-08-05T04:10:03.206Z,55.68
2022-08-05T04:15:02.223Z,55.7
2022-08-05T04:20:03.574Z,55.74
2022-08-05T04:25:02.740Z,55.74
2022-08-05T04:30:03.591Z,55.75
2022-08-05T04:35:02.768Z,55.78
2022-08-05T04:40:02.504Z,55.81
2022-08-05T04:45:02.463Z,55.84
2022-08-05T04:50:11.619Z,55.84
2022-08-05T04:55:14.377Z,55.86
2022-08-05T05:00:01.893Z,55.89
2022-08-05T05:05:03.019Z,55.91
2022-08-05T05:10:02.954Z,55.91
2022-08-05T05:15:03.981Z,55.96
2022-08-05T05:20:01.986Z,56.0
2022-08-05T05:25:16.630Z,56.01
2022-08-05T05:30:04.416Z,56.07
2022-08-05T05:35:02.187Z,56.11
2022-08-05T05:40:02.168Z,56.19
2022-08-05T05:45:03.049Z,56.21
2022-08-05T05:50:02.329Z,56.26
2022-08-05T05:55:02.011Z,56.28
2022-08-05T06:00:02.499Z,56.35
2022-08-05T06:05:03.475Z,56.37
2022-08-05T06:10:04.454Z,56.41
2022-08-05T06:15:01.850Z,56.41
2022-08-05T06:20:02.698Z,56.43
2022-08-05T06:25:25.248Z,56.47
2022-08-05T06:30:04.245Z,56.52
2022-08-05T06:35:05.810Z,56.55
2022-08-05T06:40:02.567Z,56.58
2022-08-05T06:45:05.561Z,56.59
2022-08-05T06:50:05.113Z,56.61
2022-08-05T06:55:02.645Z,56.6
2022-08-05T07:00:02.520Z,56.64
2022-08-05T07:05:02.717Z,56.64
2022-08-05T07:10:03.641Z,56.68
2022-08-05T07:15:03.451Z,56.69
2022-08-05T07:20:32.508Z,56.71
2022-08-05T07:25:22.806Z,56.71
2022-08-05T07:30:24.162Z,56.72
2022-08-05T07:35:56.088Z,56.74
2022-08-05T07:40:26.907Z,56.75
2022-08-05T07:45:01.985Z,56.76
2022-08-05T07:50:02.659Z,56.78
2022-08-05T07:55:02.604Z,56.78
2022-08-05T08:00:02.647Z,56.75
2022-08-05T08:05:02.573Z,56.76
2022-08-05T08:10:01.871Z,56.75
2022-08-05T08:15:03.711Z,56.76
2022-08-05T08:20:42.950Z,56.72
2022-08-05T08:25:02.849Z,56.74
2022-08-05T08:30:05.066Z,56.7
2022-08-05T08:35:02.674Z,56.7
2022-08-05T08:40:03.567Z,56.71
2022-08-05T08:45:20.173Z,56.67
2022-08-05T08:50:05.937Z,56.65
2022-08-05T08:55:02.508Z,56.63
2022-08-05T09:00:02.137Z,56.63
2022-08-05T09:05:17.493Z,56.59
2022-08-05T09:10:01.939Z,56.59
2022-08-05T09:15:05.882Z,56.57
2022-08-05T09:20:04.735Z,56.54
2022-08-05T09:25:02.174Z,56.53
2022-08-05T09:30:06.316Z,56.45
2022-08-05T09:35:02.590Z,56.41
2022-08-05T09:40:02.518Z,56.38
2022-08-05T09:45:17.280Z,56.33
2022-08-05T09:50:03.381Z,56.27
2022-08-05T09:55:55.175Z,56.25
2022-08-05T10:00:04.819Z,56.2
2022-08-05T10:05:02.392Z,56.17
2022-08-05T10:10:14.153Z,56.12
2022-08-05T10:15:02.490Z,56.08
2022-08-05T10:20:04.163Z,56.0
2022-08-05T10:25:02.688Z,55.93
2022-08-05T10:30:06.432Z,55.86
2022-08-05T10:35:02.680Z,55.82
2022-08-05T10:40:17.403Z,55.7
2022-08-05T10:45:21.568Z,55.68
2022-08-05T10:50:32.365Z,55.6
2022-08-05T10:55:03.276Z,55.58
2022-08-05T11:00:11.054Z,55.58
2022-08-05T11:05:02.231Z,55.58
2022-08-05T11:10:10.124Z,55.59
2022-08-05T11:15:20.658Z,55.6
2022-08-05T11:20:10.165Z,55.59
2022-08-05T11:26:03.565Z,55.59
2022-08-05T11:30:02.517Z,55.47
2022-08-05T11:35:02.335Z,55.36
2022-08-05T11:40:03.839Z,55.19
2022-08-05T11:45:02.436Z,55.14
2022-08-05T11:50:01.860Z,54.94
2022-08-05T11:55:07.687Z,54.86
2022-08-05T12:00:02.384Z,54.76
2022-08-05T12:05:06.746Z,54.68
2022-08-05T12:10:06.225Z,54.64
2022-08-05T12:15:02.419Z,54.52
2022-08-05T12:20:25.691Z,54.36
2022-08-05T12:25:02.125Z,54.17
2022-08-05T12:30:03.365Z,53.97
2022-08-05T12:35:04.059Z,53.79
2022-08-05T12:40:03.645Z,53.66
2022-08-05T12:45:01.833Z,53.59
2022-08-05T12:50:06.226Z,53.52
2022-08-05T12:55:02.211Z,53.33
2022-08-05T13:01:57.647Z,53.27
2022-08-05T13:05:01.938Z,53.18
2022-08-05T13:10:02.322Z,53.09
2022-08-05T13:15:05.274Z,52.93
2022-08-05T13:20:12.384Z,52.62
2022-08-05T13:25:05.695Z,52.64
2022-08-05T13:30:34.415Z,52.42
2022-08-05T13:35:02.089Z,52.29
2022-08-05T13:40:16.525Z,52.1
2022-08-05T13:45:02.179Z,52.08
2022-08-05T13:50:04.697Z,51.89
2022-08-05T13:55:02.238Z,51.84
2022-08-05T14:00:02.476Z,51.69
2022-08-05T14:05:02.855Z,51.64
2022-08-05T14:10:02.703Z,51.59
2022-08-05T14:16:03.831Z,51.5
2022-08-05T14:20:04.529Z,51.43
2022-08-05T14:25:02.555Z,51.28
2022-08-05T14:30:02.408Z,51.22
2022-08-05T14:35:02.135Z,51.19
2022-08-05T14:40:02.148Z,51.19
2022-08-05T14:45:02.151Z,51.1
2022-08-05T14:50:11.316Z,51.08
2022-08-05T14:55:02.596Z,51.02
2022-08-05T15:00:02.416Z,50.86
2022-08-05T15:05:02.439Z,50.81
2022-08-05T15:10:03.307Z,50.63
2022-08-05T15:15:02.242Z,50.55
2022-08-05T15:20:02.146Z,50.5
2022-08-05T15:25:11.829Z,50.44
2022-08-05T15:30:01.993Z,50.36
2022-08-05T15:35:09.768Z,50.29
2022-08-05T15:41:00.099Z,50.26
2022-08-05T15:45:02.384Z,50.22
2022-08-05T15:50:02.189Z,50.05
2022-08-05T15:55:03.130Z,50.05
2022-08-05T16:00:02.601Z,50.04
2022-08-05T16:05:02.588Z,50.06
2022-08-05T16:10:02.214Z,49.99
2022-08-05T16:15:02.245Z,49.97
2022-08-05T16:20:04.168Z,49.97
2022-08-05T16:25:05.366Z,49.98
2022-08-05T16:30:02.865Z,49.93
2022-08-05T16:35:02.285Z,49.97
2022-08-05T16:40:06.048Z,49.94
2022-08-05T16:45:02.057Z,49.99
2022-08-05T16:50:02.408Z,49.97
2022-08-05T16:55:02.342Z,49.99
2022-08-05T17:00:07.393Z,49.87
2022-08-05T17:05:02.437Z,49.86
2022-08-05T17:10:02.836Z,49.95
2022-08-05T17:15:02.693Z,49.95
2022-08-05T17:20:02.736Z,50.0
2022-08-05T17:25:01.938Z,49.98
2022-08-05T17:30:02.907Z,49.94
2022-08-05T17:35:01.915Z,49.87
2022-08-05T17:40:02.843Z,49.87
2022-08-05T17:45:09.958Z,49.92
2022-08-05T17:50:03.760Z,49.95
2022-08-05T17:55:03.114Z,49.96
2022-08-05T18:00:05.159Z,50.02
2022-08-05T18:05:02.717Z,50.11
2022-08-05T18:10:10.161Z,50.19
2022-08-05T18:15:02.533Z,50.21
2022-08-05T18:20:02.345Z,50.33
2022-08-05T18:25:02.312Z,50.41
2022-08-05T18:30:02.195Z,50.5
2022-08-05T18:35:01.951Z,50.53
2022-08-05T18:40:33.838Z,50.57
2022-08-05T18:45:02.614Z,50.64
2022-08-05T18:50:02.045Z,50.74
2022-08-05T18:55:02.287Z,50.75
2022-08-05T19:00:13.324Z,50.78
2022-08-05T19:06:05.575Z,50.83
2022-08-05T19:10:02.598Z,50.87
2022-08-05T19:15:02.987Z,50.89
2022-08-05T19:20:01.837Z,50.89
2022-08-05T19:25:02.670Z,50.94
2022-08-05T19:30:02.722Z,50.96
2022-08-05T19:35:06.566Z,51.0
2022-08-05T19:40:02.543Z,51.02
2022-08-05T19:45:01.954Z,51.09
2022-08-05T19:50:01.788Z,51.1
2022-08-05T19:56:11.361Z,51.12
2022-08-05T20:00:04.514Z,51.17
2022-08-05T20:05:04.863Z,51.23
2022-08-05T20:10:04.749Z,51.25
2022-08-05T20:15:01.995Z,51.3
2022-08-05T20:20:04.360Z,51.35
2022-08-05T20:25:02.525Z,51.4
2022-08-05T20:30:12.487Z,51.41
2022-08-05T20:35:15.090Z,51.45
2022-08-05T20:40:08.011Z,51.49
2022-08-05T20:45:07.842Z,51.54
2022-08-05T20:50:07.936Z,51.57
2022-08-05T20:56:02.816Z,51.63
2022-08-05T21:00:21.296Z,51.67
2022-08-05T21:05:09.310Z,51.75
2022-08-05T21:10:08.065Z,51.75
2022-08-05T21:15:08.491Z,51.8
2022-08-05T21:20:09.903Z,51.84
2022-08-05T21:25:08.077Z,51.88
2022-08-05T21:30:08.553Z,51.9
2022-08-05T21:35:18.330Z,51.93
2022-08-05T21:40:13.801Z,51.98
2022-08-05T21:45:10.799Z,52.0
2022-08-05T21:50:08.795Z,52.05
2022-08-05T21:55:08.465Z,52.09
2022-08-05T22:00:11.113Z,52.13
2022-08-05T22:05:09.059Z,52.18
2022-08-05T22:10:07.864Z,52.19
2022-08-05T22:15:08.436Z,52.25
2022-08-05T22:20:13.225Z,52.3
2022-08-05T22:25:08.729Z,52.35
2022-08-05T22:30:07.977Z,52.36
2022-08-05T22:35:07.650Z,52.42
2022-08-05T22:40:08.365Z,52.45
2022-08-05T22:45:07.857Z,52.5
2022-08-05T22:50:20.557Z,52.52
2022-08-05T22:55:18.980Z,52.57
2022-08-05T23:00:58.718Z,52.59
2022-08-05T23:05:08.274Z,52.64
2022-08-05T23:10:07.948Z,52.66
2022-08-05T23:15:08.784Z,52.69
2022-08-05T23:20:15.525Z,52.73
2022-08-05T23:25:08.067Z,52.77
2022-08-05T23:30:08.347Z,52.8
2022-08-05T23:35:08.521Z,52.83
2022-08-05T23:40:09.567Z,52.85
2022-08-05T23:45:14.418Z,52.9
2022-08-05T23:50:09.564Z,52.93
2022-08-05T23:55:09.030Z,52.99
